Aplicació Alertes

Dades de l'estació automàtica Alfarràs

?
?
Resum diari 22:30 TU
Dades diàries de l'estació meteorològica
Temperatura mitjana 1.4 °C
Temperatura màxima 8.6 °C 15:48 TU
Temperatura mínima -4.9 °C 6:43 TU
Humitat relativa mitjana 77%
Precipitació acumulada 0.0 mm
Ratxa màxima del vent (2 m) 13.3 km/h - 254º 11:36 TU

El tram horari està expressat en Temps Universal (TU). Cal sumar una hora en horari d'hivern i dues en horari d'estiu per passar a l'hora oficial.

Alfarràs

Metadades estació meteorol´gica
Municipi Alfarràs
Comarca Segrià
Altitud 268 m
Data alta 17.09.1997
Estat actual Operativa
Dades de període
Període
TU
TM
°C
TX
°C
TN
°C
HRM
%
PPT
mm
VVM (2 m)
km/h
DVM (2 m)
graus
VVX (2 m)
km/h
00:00 - 00:30 -1.9 -1.0 -2.2 94 0.0 2.5 296 6.8
00:30 - 01:00 -0.9 -0.7 -1.3 91 0.0 1.8 343 5.4
01:00 - 01:30 -1.1 -0.3 -1.4 90 0.0 2.9 331 6.1
01:30 - 02:00 -0.3 0.0 -0.5 88 0.0 5.0 290 10.4
02:00 - 02:30 -0.1 0.2 -0.3 84 0.0 4.3 338 9.0
02:30 - 03:00 -1.0 -0.3 -2.0 85 0.0 1.4 164 6.8
03:00 - 03:30 -2.2 -2.0 -2.6 91 0.0 1.4 246 7.2
03:30 - 04:00 -2.9 -2.7 -3.2 93 0.0 1.4 265 4.0
04:00 - 04:30 -3.4 -2.9 -3.8 94 0.0 1.1 328 5.0
04:30 - 05:00 -3.6 -3.3 -3.9 95 0.0 1.8 356 5.0
05:00 - 05:30 -4.0 -3.4 -4.6 94 0.0 1.1 208 3.6
05:30 - 06:00 -4.3 -3.8 -4.6 95 0.0 1.4 267 4.3
06:00 - 06:30 -4.4 -4.0 -4.9 95 0.0 1.1 324 4.3
06:30 - 07:00 -4.7 -4.3 -4.9 94 0.0 1.1 330 4.7
07:00 - 07:30 -4.4 -4.1 -4.6 94 0.0 2.2 308 7.2
07:30 - 08:00 -3.8 -3.4 -4.0 93 0.0 2.9 310 7.6
08:00 - 08:30 -2.9 -2.3 -3.3 91 0.0 3.2 315 6.8
08:30 - 09:00 -1.5 0.0 -2.3 87 0.0 3.2 305 7.9
09:00 - 09:30 1.4 2.3 0.3 79 0.0 1.8 184 5.0
09:30 - 10:00 2.6 3.0 2.2 73 0.0 1.1 221 5.0
10:00 - 10:30 3.3 4.4 2.3 71 0.0 3.2 294 7.6
10:30 - 11:00 5.0 5.7 4.4 65 0.0 3.2 231 7.9
11:00 - 11:30 5.4 5.7 5.2 62 0.0 5.0 242 9.4
11:30 - 12:00 5.6 5.9 5.5 60 0.0 6.8 239 13.3
12:00 - 12:30 6.8 7.5 6.0 56 0.0 3.6 222 9.4
12:30 - 13:00 8.0 8.4 7.3 50 0.0 3.6 206 10.4
13:00 - 13:30 7.5 8.2 7.0 50 0.0 4.0 234 10.4
13:30 - 14:00 7.7 8.2 7.1 49 0.0 3.6 221 10.1
14:00 - 14:30 7.4 7.7 7.0 51 0.0 2.9 245 9.4
14:30 - 15:00 7.3 7.8 6.9 53 0.0 1.4 253 6.1
15:00 - 15:30 7.8 8.2 7.6 53 0.0 1.4 94 3.6
15:30 - 16:00 7.8 8.6 7.3 53 0.0 1.1 335 3.2
16:00 - 16:30 6.1 7.9 4.1 58 0.0 1.8 181 5.0
16:30 - 17:00 3.0 4.3 2.1 71 0.0 1.1 360 3.6
17:00 - 17:30 2.4 2.6 2.1 76 0.0 3.6 296 7.9
17:30 - 18:00 2.1 2.5 1.8 76 0.0 6.5 295 11.5
18:00 - 18:30 1.6 1.9 1.3 77 0.0 6.5 284 11.9
18:30 - 19:00 1.6 1.8 1.2 76 0.0 7.2 279 13.3
19:00 - 19:30 1.3 1.6 1.1 77 0.0 5.0 264 11.5
19:30 - 20:00 1.6 2.2 1.2 76 0.0 4.7 258 12.6
20:00 - 20:30 1.7 2.2 1.3 76 0.0 4.7 272 9.4
20:30 - 21:00 1.8 2.0 1.7 75 0.0 4.0 290 8.3
21:00 - 21:30 1.5 1.8 1.3 78 0.0 2.5 316 6.8
21:30 - 22:00 1.7 1.8 1.4 78 0.0 2.9 306 7.6
22:00 - 22:30 1.6 1.8 1.3 78 0.0 2.2 306 6.5
22:30 - 23:00 0.8 1.5 0.5 83 0.0 1.4 343 3.6

Les dades en taronja només han passat un control de qualitat automàtic. Resta pendent la seva validació definitiva.